Time,TemperatureF,DewpointF,PressureIn,WindDirection,WindDirectionDegrees,WindSpeedMPH,WindSpeedGustMPH,Humidity,HourlyPrecipIn,Conditions,Clouds,dailyrainin,SoftwareType,DateUTC
2013-04-14 00:05:00,62.7,53.0,29.78,SE,143,3.0,10.0,70,0.00,,,0.00,weatherlink.com 1.10,2013-04-14 05:05:00,
2013-04-14 00:20:00,62.2,53.0,29.78,South,176,3.0,9.0,71,0.00,,,0.00,weatherlink.com 1.10,2013-04-14 05:20:00,
2013-04-14 00:35:00,61.9,53.0,29.78,SE,144,3.0,10.0,72,0.00,,,0.00,weatherlink.com 1.10,2013-04-14 05:35:00,
2013-04-14 00:50:00,62.1,53.0,29.78,SSE,167,4.0,11.0,72,0.00,,,0.00,weatherlink.com 1.10,2013-04-14 05:50:00,
2013-04-14 01:05:00,62.4,53.0,29.78,South,170,2.0,11.0,72,0.00,,,0.00,weatherlink.com 1.10,2013-04-14 06:05:00,
2013-04-14 01:20:00,62.0,53.0,29.77,SSE,168,3.0,8.0,73,0.00,,,0.00,weatherlink.com 1.10,2013-04-14 06:20:00,
2013-04-14 01:35:00,61.3,53.0,29.76,SE,146,3.0,6.0,75,0.00,,,0.00,weatherlink.com 1.10,2013-04-14 06:35:00,
2013-04-14 01:50:00,60.5,53.0,29.75,SE,137,2.0,7.0,77,0.00,,,0.00,weatherlink.com 1.10,2013-04-14 06:50:00,
2013-04-14 02:05:00,59.8,53.0,29.75,SE,140,1.0,4.0,79,0.00,,,0.00,weatherlink.com 1.10,2013-04-14 07:05:00,
2013-04-14 02:20:00,58.6,53.0,29.74,SE,140,1.0,3.0,81,0.00,,,0.00,weatherlink.com 1.10,2013-04-14 07:20:00,
2013-04-14 02:35:00,58.2,53.0,29.73,SSE,147,1.0,4.0,83,0.00,,,0.00,weatherlink.com 1.10,2013-04-14 07:35:00,
2013-04-14 02:50:00,58.2,53.0,29.73,South,169,1.0,6.0,83,0.00,,,0.00,weatherlink.com 1.10,2013-04-14 07:50:00,
2013-04-14 03:05:00,57.5,53.0,29.72,South,169,0.0,3.0,84,0.00,,,0.00,weatherlink.com 1.10,2013-04-14 08:05:00,
2013-04-14 03:20:00,56.3,52.0,29.71,South,169,0.0,2.0,86,0.00,,,0.00,weatherlink.com 1.10,2013-04-14 08:20:00,
2013-04-14 03:35:00,55.6,52.0,29.71,South,169,1.0,2.0,88,0.00,,,0.00,weatherlink.com 1.10,2013-04-14 08:35:00,
2013-04-14 03:50:00,55.0,52.0,29.70,South,169,2.0,3.0,89,0.00,,,0.00,weatherlink.com 1.10,2013-04-14 08:50:00,
2013-04-14 04:05:00,54.6,52.0,29.70,South,169,0.0,2.0,90,0.00,,,0.00,weatherlink.com 1.10,2013-04-14 09:05:00,
2013-04-14 04:21:00,53.9,51.0,29.69,South,169,2.0,2.0,91,0.00,,,0.00,weatherlink.com 1.10,2013-04-14 09:21:00,
2013-04-14 04:36:00,53.5,51.0,29.69,South,169,1.0,2.0,91,0.00,,,0.00,weatherlink.com 1.10,2013-04-14 09:36:00,
2013-04-14 04:51:00,53.5,51.0,29.69,South,169,1.0,1.0,92,0.00,,,0.00,weatherlink.com 1.10,2013-04-14 09:51:00,
2013-04-14 05:21:00,53.1,51.0,29.69,South,169,0.0,2.0,93,0.00,,,0.00,weatherlink.com 1.10,2013-04-14 10:21:00,
2013-04-14 05:51:00,53.9,52.0,29.68,South,190,3.0,5.0,94,0.00,,,0.00,weatherlink.com 1.10,2013-04-14 10:51:00,
2013-04-14 06:06:00,55.1,54.0,29.69,SSW,199,3.0,6.0,94,0.00,,,0.00,weatherlink.com 1.10,2013-04-14 11:06:00,
2013-04-14 06:36:00,56.4,55.0,29.70,SSW,203,3.0,6.0,94,0.00,,,0.00,weatherlink.com 1.10,2013-04-14 11:36:00,
2013-04-14 07:36:00,57.3,56.0,29.71,SW,216,1.0,8.0,94,0.00,,,0.00,weatherlink.com 1.10,2013-04-14 12:36:00,
2013-04-14 07:51:00,58.5,57.0,29.71,SW,222,3.0,10.0,93,0.00,,,0.00,weatherlink.com 1.10,2013-04-14 12:51:00,
2013-04-14 08:06:00,59.9,57.0,29.70,SSW,204,6.0,10.0,90,0.00,,,0.00,weatherlink.com 1.10,2013-04-14 13:06:00,
2013-04-14 08:21:00,61.2,58.0,29.70,South,191,4.0,8.0,88,0.00,,,0.00,weatherlink.com 1.10,2013-04-14 13:21:00,
2013-04-14 08:36:00,62.6,58.0,29.70,South,186,7.0,12.0,86,0.00,,,0.00,weatherlink.com 1.10,2013-04-14 13:36:00,
2013-04-14 08:51:00,63.6,59.0,29.70,South,176,8.0,8.0,84,0.00,,,0.00,weatherlink.com 1.10,2013-04-14 13:51:00,
2013-04-14 09:06:00,64.3,59.0,29.70,SSE,164,6.0,11.0,84,0.00,,,0.00,weatherlink.com 1.10,2013-04-14 14:06:00,
2013-04-14 09:21:00,65.0,60.0,29.71,SSW,212,9.0,13.0,83,0.00,,,0.00,weatherlink.com 1.10,2013-04-14 14:21:00,
2013-04-14 09:36:00,65.5,60.0,29.71,SW,225,4.0,18.0,83,0.00,,,0.00,weatherlink.com 1.10,2013-04-14 14:36:00,
2013-04-14 09:51:00,66.9,61.0,29.69,South,177,1.0,10.0,81,0.00,,,0.00,weatherlink.com 1.10,2013-04-14 14:51:00,
2013-04-14 10:06:00,68.2,62.0,29.69,South,171,6.0,12.0,80,0.00,,,0.00,weatherlink.com 1.10,2013-04-14 15:06:00,
2013-04-14 10:21:00,69.1,62.0,29.69,South,188,8.0,13.0,78,0.00,,,0.00,weatherlink.com 1.10,2013-04-14 15:21:00,
2013-04-14 10:36:00,71.2,63.0,29.68,West,264,5.0,14.0,76,0.00,,,0.00,weatherlink.com 1.10,2013-04-14 15:36:00,
2013-04-14 10:51:00,72.4,63.0,29.68,SSW,195,11.0,15.0,73,0.00,,,0.00,weatherlink.com 1.10,2013-04-14 15:51:00,
2013-04-14 11:06:00,73.6,63.0,29.69,SW,214,3.0,15.0,70,0.00,,,0.00,weatherlink.com 1.10,2013-04-14 16:06:00,
2013-04-14 11:21:00,73.7,62.0,29.69,WSW,240,9.0,15.0,68,0.00,,,0.00,weatherlink.com 1.10,2013-04-14 16:21:00,
2013-04-14 11:36:00,75.6,63.0,29.68,SSW,206,6.0,13.0,66,0.00,,,0.00,weatherlink.com 1.10,2013-04-14 16:36:00,
2013-04-14 11:51:00,77.0,65.0,29.68,SW,233,9.0,15.0,66,0.00,,,0.00,weatherlink.com 1.10,2013-04-14 16:51:00,
2013-04-14 12:08:00,77.5,64.0,29.67,SW,216,4.0,20.0,63,0.00,,,0.00,weatherlink.com 1.10,2013-04-14 17:08:00,
2013-04-14 12:22:00,78.5,64.0,29.67,SSW,213,7.0,16.0,62,0.00,,,0.00,weatherlink.com 1.10,2013-04-14 17:22:00,
2013-04-14 12:37:00,79.8,64.0,29.66,WNW,292,3.0,15.0,58,0.00,,,0.00,weatherlink.com 1.10,2013-04-14 17:37:00,
2013-04-14 12:52:00,80.9,64.0,29.65,SW,229,8.0,12.0,57,0.00,,,0.00,weatherlink.com 1.10,2013-04-14 17:52:00,
2013-04-14 13:07:00,81.6,63.0,29.64,SSW,205,6.0,16.0,53,0.00,,,0.00,weatherlink.com 1.10,2013-04-14 18:07:00,
2013-04-14 13:22:00,82.3,63.0,29.64,SW,216,7.0,18.0,53,0.00,,,0.00,weatherlink.com 1.10,2013-04-14 18:22:00,
2013-04-14 13:37:00,83.8,65.0,29.63,SW,219,5.0,13.0,53,0.00,,,0.00,weatherlink.com 1.10,2013-04-14 18:37:00,
2013-04-14 13:52:00,84.0,64.0,29.62,SSW,201,2.0,12.0,51,0.00,,,0.00,weatherlink.com 1.10,2013-04-14 18:52:00,
2013-04-14 14:07:00,84.1,63.0,29.61,SSW,212,7.0,15.0,49,0.00,,,0.00,weatherlink.com 1.10,2013-04-14 19:07:00,
2013-04-14 14:22:00,85.9,65.0,29.61,SSW,212,4.0,16.0,49,0.00,,,0.00,weatherlink.com 1.10,2013-04-14 19:22:00,
2013-04-14 14:37:00,86.2,64.0,29.60,SSW,197,7.0,16.0,47,0.00,,,0.00,weatherlink.com 1.10,2013-04-14 19:37:00,
2013-04-14 14:52:00,86.7,64.0,29.59,SSW,193,8.0,16.0,46,0.00,,,0.00,weatherlink.com 1.10,2013-04-14 19:52:00,
2013-04-14 15:07:00,87.3,62.0,29.58,South,177,4.0,15.0,43,0.00,,,0.00,weatherlink.com 1.10,2013-04-14 20:07:00,
2013-04-14 15:22:00,88.8,63.0,29.57,SW,220,5.0,16.0,42,0.00,,,0.00,weatherlink.com 1.10,2013-04-14 20:22:00,
2013-04-14 15:37:00,88.4,63.0,29.56,South,190,6.0,13.0,43,0.00,,,0.00,weatherlink.com 1.10,2013-04-14 20:37:00,
2013-04-14 15:52:00,88.6,63.0,29.56,SSE,162,5.0,13.0,42,0.00,,,0.00,weatherlink.com 1.10,2013-04-14 20:52:00,
2013-04-14 16:07:00,88.8,63.0,29.55,South,181,6.0,17.0,42,0.00,,,0.00,weatherlink.com 1.10,2013-04-14 21:07:00,
2013-04-14 16:22:00,89.3,63.0,29.54,SW,226,5.0,14.0,41,0.00,,,0.00,weatherlink.com 1.10,2013-04-14 21:22:00,
2013-04-14 16:37:00,89.9,63.0,29.53,South,179,6.0,15.0,40,0.00,,,0.00,weatherlink.com 1.10,2013-04-14 21:37:00,
2013-04-14 16:52:00,90.0,62.0,29.53,SSE,168,10.0,21.0,39,0.00,,,0.00,weatherlink.com 1.10,2013-04-14 21:52:00,
2013-04-14 17:07:00,90.3,61.0,29.53,South,191,7.0,17.0,38,0.00,,,0.00,weatherlink.com 1.10,2013-04-14 22:07:00,
2013-04-14 17:22:00,90.2,61.0,29.53,SSE,152,5.0,16.0,38,0.00,,,0.00,weatherlink.com 1.10,2013-04-14 22:22:00,
2013-04-14 17:37:00,89.9,60.0,29.52,South,187,7.0,16.0,37,0.00,,,0.00,weatherlink.com 1.10,2013-04-14 22:37:00,
2013-04-14 17:52:00,89.8,62.0,29.52,SSE,149,11.0,18.0,39,0.00,,,0.00,weatherlink.com 1.10,2013-04-14 22:52:00,
2013-04-14 18:07:00,89.2,60.0,29.52,SSW,193,11.0,20.0,38,0.00,,,0.00,weatherlink.com 1.10,2013-04-14 23:07:00,
2013-04-14 18:22:00,88.9,61.0,29.52,SSW,196,6.0,20.0,39,0.00,,,0.00,weatherlink.com 1.10,2013-04-14 23:22:00,
2013-04-14 18:37:00,88.5,61.0,29.52,South,190,7.0,16.0,39,0.00,,,0.00,weatherlink.com 1.10,2013-04-14 23:37:00,
2013-04-14 18:53:00,87.9,58.0,29.52,South,190,7.0,20.0,37,0.00,,,0.00,weatherlink.com 1.10,2013-04-14 23:53:00,
2013-04-14 19:08:00,87.0,58.0,29.52,South,170,6.0,19.0,38,0.00,,,0.00,weatherlink.com 1.10,2013-04-15 00:08:00,
2013-04-14 19:23:00,86.1,59.0,29.52,SSW,201,7.0,16.0,40,0.00,,,0.00,weatherlink.com 1.10,2013-04-15 00:23:00,
2013-04-14 19:38:00,85.0,62.0,29.53,SSE,168,5.0,14.0,46,0.00,,,0.00,weatherlink.com 1.10,2013-04-15 00:38:00,
2013-04-14 19:53:00,83.8,63.0,29.53,SE,141,9.0,19.0,49,0.00,,,0.00,weatherlink.com 1.10,2013-04-15 00:53:00,
2013-04-14 20:08:00,82.7,63.0,29.54,SSE,156,6.0,14.0,51,0.00,,,0.00,weatherlink.com 1.10,2013-04-15 01:08:00,
2013-04-14 20:23:00,81.6,63.0,29.54,South,170,5.0,13.0,54,0.00,,,0.00,weatherlink.com 1.10,2013-04-15 01:23:00,
2013-04-14 20:38:00,80.7,64.0,29.55,SSE,153,6.0,13.0,57,0.00,,,0.00,weatherlink.com 1.10,2013-04-15 01:38:00,
2013-04-14 20:53:00,80.0,64.0,29.56,SE,125,10.0,17.0,58,0.00,,,0.00,weatherlink.com 1.10,2013-04-15 01:53:00,
2013-04-14 21:08:00,79.4,63.0,29.56,SSW,195,11.0,15.0,58,0.00,,,0.00,weatherlink.com 1.10,2013-04-15 02:08:00,
2013-04-14 21:23:00,79.1,63.0,29.57,South,191,8.0,16.0,58,0.00,,,0.00,weatherlink.com 1.10,2013-04-15 02:23:00,
2013-04-14 21:38:00,78.5,63.0,29.58,South,176,4.0,13.0,59,0.00,,,0.00,weatherlink.com 1.10,2013-04-15 02:38:00,
2013-04-14 21:53:00,78.4,63.0,29.58,SSW,208,5.0,17.0,59,0.00,,,0.00,weatherlink.com 1.10,2013-04-15 02:53:00,
2013-04-14 22:08:00,78.0,62.0,29.59,SSW,192,4.0,13.0,59,0.00,,,0.00,weatherlink.com 1.10,2013-04-15 03:08:00,
2013-04-14 22:23:00,77.7,62.0,29.59,South,172,8.0,14.0,59,0.00,,,0.00,weatherlink.com 1.10,2013-04-15 03:23:00,
2013-04-14 22:38:00,77.1,62.0,29.59,South,185,11.0,14.0,60,0.00,,,0.00,weatherlink.com 1.10,2013-04-15 03:38:00,
2013-04-14 22:53:00,76.4,62.0,29.59,South,172,6.0,11.0,61,0.00,,,0.00,weatherlink.com 1.10,2013-04-15 03:53:00,
2013-04-14 23:08:00,75.6,62.0,29.60,South,187,5.0,10.0,62,0.00,,,0.00,weatherlink.com 1.10,2013-04-15 04:08:00,
2013-04-14 23:23:00,74.8,61.0,29.60,SSW,195,4.0,10.0,63,0.00,,,0.00,weatherlink.com 1.10,2013-04-15 04:23:00,
2013-04-14 23:38:00,73.9,61.0,29.60,South,176,6.0,10.0,65,0.00,,,0.00,weatherlink.com 1.10,2013-04-15 04:38:00,
2013-04-14 23:53:00,73.7,62.0,29.60,South,176,6.0,16.0,68,0.00,,,0.00,weatherlink.com 1.10,2013-04-15 04:53:00,